Time;durP1;ratioP1;P1;durP2;ratioP2;P2;SDS_P1;SDS_P2;PMS_P1;PMS_P2;Temp;Humidity;BMP_temperature;BMP_pressure;BME280_temperature;BME280_humidity;BME280_pressure;Samples;Min_cycle;Max_cycle;Signal;HPM_P1;HPM_P2
2023/03/15 00:03:58;;;;;;;6.45;2.78;;;;;;;6.47;63.81;99799.03;10419386;28;20052;-67
2023/03/15 00:09:00;;;;;;;8.70;2.88;;;;;;;6.44;63.23;99799.25;10420129;28;20067;-65
2023/03/15 00:14:02;;;;;;;6.32;2.45;;;;;;;6.49;63.47;99800.63;10421276;28;20041;-66
2023/03/15 00:19:03;;;;;;;4.43;2.22;;;;;;;6.49;63.23;99810.38;10422061;28;20139;-69
2023/03/15 00:24:05;;;;;;;7.72;2.47;;;;;;;6.35;63.28;99814.81;10425642;28;20072;-67
2023/03/15 00:29:07;;;;;;;6.80;2.75;;;;;;;6.33;63.10;99829.94;10404953;28;20130;-63
2023/03/15 00:34:08;;;;;;;5.38;2.20;;;;;;;6.18;62.23;99829.22;10394972;28;20165;-65
2023/03/15 00:39:10;;;;;;;6.15;2.08;;;;;;;6.12;63.33;99839.34;10399879;28;20297;-65
2023/03/15 00:44:12;;;;;;;5.90;2.42;;;;;;;6.15;62.56;99836.50;10402420;28;20763;-67
2023/03/15 00:49:13;;;;;;;8.73;1.95;;;;;;;6.03;61.90;99846.09;10420025;28;20048;-65
2023/03/15 00:54:14;;;;;;;5.25;1.92;;;;;;;5.86;61.35;99844.59;10422623;28;20049;-67
2023/03/15 00:59:16;;;;;;;5.63;1.95;;;;;;;5.84;61.12;99854.41;10429783;28;20041;-66
2023/03/15 01:04:17;;;;;;;6.93;2.25;;;;;;;5.79;61.60;99859.13;10402220;28;20064;-66
2023/03/15 01:09:19;;;;;;;8.52;2.10;;;;;;;5.72;61.65;99878.97;10433290;28;20056;-68
2023/03/15 01:14:20;;;;;;;7.30;1.90;;;;;;;5.70;62.01;99881.72;10444042;28;20374;-68
2023/03/15 01:19:22;;;;;;;5.32;1.88;;;;;;;5.70;61.73;99876.44;10434964;28;20053;-69
2023/03/15 01:24:23;;;;;;;5.65;1.85;;;;;;;5.65;61.46;99882.03;10413225;28;20508;-68
2023/03/15 01:29:24;;;;;;;6.20;2.05;;;;;;;5.64;62.06;99885.63;10403265;28;20169;-68
2023/03/15 01:34:26;;;;;;;7.47;1.83;;;;;;;5.60;61.41;99886.78;10437776;28;20052;-66
2023/03/15 01:39:28;;;;;;;9.18;2.92;;;;;;;5.57;62.58;99889.63;10447338;28;20726;-68
2023/03/15 01:45:25;;;;;;;6.28;2.10;;;;;;;5.55;62.75;99896.78;10435725;28;20526;-67
2023/03/15 01:50:26;;;;;;;5.93;1.60;;;;;;;5.46;63.66;99900.88;10311358;28;20052;-65
2023/03/15 01:55:28;;;;;;;10.90;2.88;;;;;;;5.46;65.96;99914.09;10410973;28;20472;-66
2023/03/15 02:00:29;;;;;;;6.60;2.00;;;;;;;5.42;64.47;99915.22;10409356;28;20106;-66
2023/03/15 02:05:44;;;;;;;6.22;2.63;;;;;;;5.34;63.43;99911.38;10409496;28;20562;-67
2023/03/15 02:10:50;;;;;;;4.47;1.13;;;;;;;5.25;65.09;99924.19;10412605;28;20683;-68
2023/03/15 02:15:52;;;;;;;6.15;2.75;;;;;;;5.24;64.91;99934.84;10409841;28;20053;-66
2023/03/15 02:21:02;;;;;;;8.68;2.60;;;;;;;5.21;64.56;99933.28;10410785;28;20059;-66
2023/03/15 02:26:20;;;;;;;4.97;1.45;;;;;;;5.01;64.49;99923.13;10411467;28;20053;-68
2023/03/15 02:31:22;;;;;;;4.90;1.55;;;;;;;5.03;64.88;99921.22;10410604;28;20060;-66
2023/03/15 02:36:28;;;;;;;8.27;2.28;;;;;;;5.00;64.45;99935.47;10406862;28;20869;-65
2023/03/15 02:41:35;;;;;;;6.57;1.70;;;;;;;4.91;65.44;99936.91;10410393;28;20044;-66
2023/03/15 02:46:37;;;;;;;6.40;1.77;;;;;;;4.87;67.44;99929.28;10409856;28;20049;-65
2023/03/15 02:51:38;;;;;;;8.30;2.05;;;;;;;4.84;66.09;99940.00;10404457;28;20077;-66
2023/03/15 02:56:39;;;;;;;4.45;1.40;;;;;;;4.78;66.20;99946.50;10388809;28;20076;-68
2023/03/15 03:01:44;;;;;;;5.45;1.55;;;;;;;4.74;66.51;99944.97;10402562;28;20048;-68
2023/03/15 03:06:45;;;;;;;4.68;1.90;;;;;;;4.75;65.96;99941.41;10404391;28;20049;-66
2023/03/15 03:11:47;;;;;;;5.65;1.42;;;;;;;4.60;65.40;99937.91;10404098;28;20136;-65
2023/03/15 03:16:50;;;;;;;4.80;1.73;;;;;;;4.56;65.40;99955.72;10404300;28;20442;-68
2023/03/15 03:21:52;;;;;;;5.28;2.08;;;;;;;4.55;65.98;99967.19;10407222;28;20052;-67
2023/03/15 03:26:56;;;;;;;4.07;1.95;;;;;;;4.38;65.86;99975.25;10412008;28;20049;-67
2023/03/15 03:31:59;;;;;;;3.70;1.42;;;;;;;4.27;67.05;99994.34;10414482;28;20060;-66
2023/03/15 03:37:01;;;;;;;6.32;1.40;;;;;;;4.22;67.63;99996.41;10410583;28;20126;-66
2023/03/15 03:42:02;;;;;;;4.40;1.67;;;;;;;4.14;67.71;99999.47;10387829;28;20468;-67
2023/03/15 03:47:04;;;;;;;5.88;1.98;;;;;;;4.15;68.28;100001.16;10411529;28;20118;-67
2023/03/15 03:52:05;;;;;;;5.50;2.03;;;;;;;4.16;68.15;100002.88;10413653;28;20364;-66
2023/03/15 03:57:08;;;;;;;3.53;1.83;;;;;;;3.99;68.80;100011.72;10413096;28;20563;-67
2023/03/15 04:02:09;;;;;;;5.50;1.95;;;;;;;3.94;69.54;100010.31;10414835;28;20302;-64
2023/03/15 04:07:11;;;;;;;4.38;1.80;;;;;;;3.89;69.24;100026.38;10412570;28;20131;-66
2023/03/15 04:12:12;;;;;;;4.43;2.05;;;;;;;3.76;69.83;100038.53;10415639;28;20093;-70
2023/03/15 04:17:14;;;;;;;4.60;1.75;;;;;;;3.75;70.01;100032.38;10413708;28;20399;-69
2023/03/15 04:22:15;;;;;;;7.50;2.15;;;;;;;3.64;70.16;100032.16;10412271;28;20044;-68
2023/03/15 04:27:16;;;;;;;6.50;2.10;;;;;;;3.72;70.37;100035.19;10409598;28;20081;-67
2023/03/15 04:32:18;;;;;;;6.30;2.03;;;;;;;3.69;70.28;100036.25;10410781;28;20316;-66
2023/03/15 04:37:19;;;;;;;6.97;1.95;;;;;;;3.58;70.29;100045.66;10409751;28;20160;-66
2023/03/15 04:42:21;;;;;;;9.27;3.00;;;;;;;3.59;70.29;100055.22;10410868;28;20048;-68
2023/03/15 04:47:23;;;;;;;3.03;1.30;;;;;;;3.57;70.52;100051.84;10410088;28;20068;-68
2023/03/15 04:52:24;;;;;;;6.78;2.15;;;;;;;3.58;70.35;100056.19;10408366;28;20451;-68
2023/03/15 04:57:25;;;;;;;5.07;1.52;;;;;;;3.69;70.32;100051.16;10407299;28;20060;-67
2023/03/15 05:02:27;;;;;;;5.47;1.90;;;;;;;3.68;69.99;100054.75;10390515;28;20067;-69
2023/03/15 05:07:28;;;;;;;8.52;1.65;;;;;;;3.63;70.42;100051.50;10390859;28;20564;-68
2023/03/15 05:12:30;;;;;;;4.97;1.70;;;;;;;3.75;70.42;100057.88;10410117;28;20173;-68
2023/03/15 05:17:32;;;;;;;3.58;1.52;;;;;;;3.71;70.46;100068.59;10403738;28;20558;-66
2023/03/15 05:22:34;;;;;;;6.15;1.70;;;;;;;3.84;70.03;100071.41;10406574;28;20419;-67
2023/03/15 05:27:36;;;;;;;3.28;1.80;;;;;;;3.80;69.98;100075.13;10407071;28;20539;-66
2023/03/15 05:32:38;;;;;;;3.63;1.48;;;;;;;3.77;70.79;100074.44;10396651;28;20053;-68
2023/03/15 05:37:41;;;;;;;4.53;1.80;;;;;;;3.62;71.15;100089.28;10393321;28;20523;-69
2023/03/15 05:42:42;;;;;;;5.80;1.90;;;;;;;3.45;71.23;100074.41;10389842;28;20075;-70
2023/03/15 05:47:44;;;;;;;5.07;1.73;;;;;;;3.35;75.35;100095.13;10393245;28;20060;-71
2023/03/15 05:52:45;;;;;;;6.30;2.20;;;;;;;3.36;75.63;100102.06;10396175;28;20594;-71
2023/03/15 05:57:46;;;;;;;6.20;2.30;;;;;;;3.43;76.58;100099.97;10379152;28;20545;-69
2023/03/15 06:02:48;;;;;;;6.18;2.50;;;;;;;3.37;78.33;100098.50;10397540;28;20148;-69
2023/03/15 06:07:50;;;;;;;5.63;1.98;;;;;;;3.43;78.91;100098.19;10395101;28;20439;-68
2023/03/15 06:12:51;;;;;;;6.28;2.05;;;;;;;3.40;80.24;100098.34;10400094;28;20053;-68
2023/03/15 06:17:53;;;;;;;7.63;2.58;;;;;;;3.21;81.47;100102.88;10397617;28;20049;-68
2023/03/15 06:22:54;;;;;;;3.78;3.15;;;;;;;3.14;81.81;100108.47;10401446;28;20728;-71
2023/03/15 06:27:55;;;;;;;11.70;4.13;;;;;;;3.17;81.27;100120.59;10402213;28;20045;-70
2023/03/15 06:32:57;;;;;;;4.40;2.85;;;;;;;3.04;83.37;100120.38;10402432;28;20614;-69
2023/03/15 06:37:58;;;;;;;6.85;2.65;;;;;;;3.20;83.36;100123.06;10400861;28;20096;-71
2023/03/15 06:43:04;;;;;;;4.53;2.97;;;;;;;3.32;81.22;100116.31;10395757;28;20079;-67
2023/03/15 06:48:06;;;;;;;9.10;3.28;;;;;;;3.16;81.23;100127.63;10397778;28;20239;-69
2023/03/15 06:53:07;;;;;;;4.30;3.20;;;;;;;3.14;81.68;100141.81;10398483;28;20052;-69
2023/03/15 06:58:09;;;;;;;5.40;3.53;;;;;;;3.37;81.47;100145.88;10392979;28;20345;-71
2023/03/15 07:03:11;;;;;;;7.55;3.63;;;;;;;3.31;81.57;100152.28;10397514;28;20829;-68
2023/03/15 07:08:12;;;;;;;6.72;3.63;;;;;;;3.31;81.50;100156.72;10382322;28;20548;-67
2023/03/15 07:13:14;;;;;;;8.63;4.15;;;;;;;3.23;81.74;100143.09;10406683;28;20619;-69
2023/03/15 07:18:15;;;;;;;5.65;4.15;;;;;;;3.35;82.46;100159.09;10388714;28;20135;-66
2023/03/15 07:23:17;;;;;;;6.32;4.07;;;;;;;3.43;81.69;100156.06;10393651;28;20080;-66
2023/03/15 07:28:18;;;;;;;7.75;4.30;;;;;;;3.44;82.85;100157.78;10413382;28;20306;-68
2023/03/15 07:33:21;;;;;;;9.77;5.35;;;;;;;3.51;82.00;100174.09;10410318;28;20404;-67
2023/03/15 07:38:25;;;;;;;8.65;4.65;;;;;;;3.40;82.09;100185.19;10412897;28;20045;-68
2023/03/15 07:43:28;;;;;;;8.70;4.68;;;;;;;3.48;86.13;100190.03;10390588;28;20046;-69
2023/03/15 07:48:29;;;;;;;8.18;4.70;;;;;;;3.66;82.21;100177.69;10415028;28;20483;-67
2023/03/15 07:53:31;;;;;;;8.25;4.85;;;;;;;3.82;80.97;100190.91;10412450;28;20060;-68
2023/03/15 07:58:33;;;;;;;5.75;4.43;;;;;;;3.91;81.34;100200.09;10397309;28;20564;-70
2023/03/15 08:03:35;;;;;;;8.10;4.50;;;;;;;4.03;79.73;100207.34;10413477;28;20581;-70
2023/03/15 08:08:36;;;;;;;8.90;4.88;;;;;;;4.11;78.87;100205.13;10400988;28;20167;-70
2023/03/15 08:13:38;;;;;;;8.93;4.97;;;;;;;4.18;79.36;100217.03;10394759;28;20044;-68
2023/03/15 08:18:39;;;;;;;10.00;4.90;;;;;;;4.23;79.10;100217.66;10415150;28;20128;-68
2023/03/15 08:23:41;;;;;;;7.40;5.15;;;;;;;4.24;77.91;100232.50;10394971;28;20118;-70
2023/03/15 08:28:42;;;;;;;10.50;4.97;;;;;;;4.29;78.83;100232.25;10414651;28;20071;-70
2023/03/15 08:33:43;;;;;;;11.10;5.05;;;;;;;4.38;79.71;100228.25;10414647;28;20063;-69
2023/03/15 08:38:45;;;;;;;9.90;5.55;;;;;;;4.65;78.90;100238.22;10415776;28;20518;-71
2023/03/15 08:43:47;;;;;;;6.70;4.65;;;;;;;4.82;78.69;100237.25;10415781;28;20462;-69
2023/03/15 08:48:48;;;;;;;12.13;4.75;;;;;;;5.15;76.52;100250.31;10410342;28;20059;-69
2023/03/15 08:53:50;;;;;;;9.80;3.97;;;;;;;5.31;75.40;100256.41;10412517;28;20049;-67
2023/03/15 08:58:52;;;;;;;9.20;4.55;;;;;;;5.60;76.29;100269.69;10407893;28;20100;-69
2023/03/15 09:03:53;;;;;;;7.47;4.43;;;;;;;5.52;75.44;100265.78;10376807;28;20056;-69
2023/03/15 09:08:54;;;;;;;7.60;4.25;;;;;;;5.61;76.08;100263.44;10406084;28;20492;-68
2023/03/15 09:13:56;;;;;;;8.10;3.70;;;;;;;6.53;75.23;100277.25;10407846;28;20044;-71
2023/03/15 09:18:57;;;;;;;6.70;3.03;;;;;;;6.82;71.82;100269.28;10403134;28;20057;-67
2023/03/15 09:23:59;;;;;;;5.38;3.88;;;;;;;6.66;72.03;100280.81;10407772;28;20059;-67
2023/03/15 09:29:00;;;;;;;5.78;2.67;;;;;;;7.20;69.79;100292.38;10389397;28;20064;-70
2023/03/15 09:34:02;;;;;;;7.07;2.67;;;;;;;7.35;69.26;100295.81;10407233;28;20064;-69
2023/03/15 09:39:03;;;;;;;5.88;2.33;;;;;;;7.69;67.93;100289.13;10406411;28;20057;-67
2023/03/15 09:44:17;;;;;;;3.97;2.63;;;;;;;8.26;65.89;100303.75;10405448;28;20188;-68
2023/03/15 09:49:51;;;;;;;3.85;2.88;;;;;;;8.66;65.07;100306.28;10396881;28;20478;-69
2023/03/15 09:54:59;;;;;;;4.93;2.93;;;;;;;9.25;61.06;100312.66;10401994;28;20122;-70
2023/03/15 10:00:06;;;;;;;4.32;2.10;;;;;;;8.51;62.19;100327.72;10403275;28;20056;-69
2023/03/15 10:05:15;;;;;;;4.10;2.58;;;;;;;7.50;65.74;100326.56;10402154;28;20114;-70
2023/03/15 10:10:20;;;;;;;5.68;3.13;;;;;;;7.96;65.77;100323.47;10404184;28;20179;-70
2023/03/15 10:15:38;;;;;;;2.95;1.90;;;;;;;8.60;61.87;100319.13;10391891;28;20096;-71
2023/03/15 10:20:45;;;;;;;4.10;2.13;;;;;;;8.11;63.19;100328.69;10401072;28;20048;-69
2023/03/15 10:25:50;;;;;;;2.22;2.03;;;;;;;8.86;63.44;100325.22;10402253;28;20052;-69
2023/03/15 10:30:52;;;;;;;;;;;;;;;8.69;62.42;100325.56;10401494;28;20045;-72
2023/03/15 10:35:53;;;;;;;4.88;2.30;;;;;;;8.49;62.56;100333.97;10401796;28;20320;-70
2023/03/15 10:41:11;;;;;;;1.75;1.48;;;;;;;7.69;62.47;100330.66;10400907;28;20382;-69
2023/03/15 10:46:24;;;;;;;1.63;1.45;;;;;;;7.22;63.44;100328.41;10400827;28;20435;-69
2023/03/15 10:51:36;;;;;;;3.22;1.83;;;;;;;12.60;50.11;100319.53;10389486;28;20056;-70
2023/03/15 10:56:58;;;;;;;2.80;1.80;;;;;;;12.91;44.57;100318.50;10382159;28;20226;-69
2023/03/15 11:02:12;;;;;;;1.88;0.98;;;;;;;12.82;44.22;100313.13;10411525;28;20052;-69
2023/03/15 11:07:14;;;;;;;1.33;1.23;;;;;;;11.48;46.82;100317.44;10410469;28;20084;-71
2023/03/15 11:12:23;;;;;;;2.97;1.35;;;;;;;11.87;45.44;100315.06;10409379;28;20146;-71
2023/03/15 11:17:34;;;;;;;1.50;1.10;;;;;;;10.47;49.40;100335.31;10389121;28;20048;-70
2023/03/15 11:22:35;;;;;;;2.30;1.50;;;;;;;11.47;47.02;100326.41;10405825;28;20049;-73
2023/03/15 11:27:37;;;;;;;3.13;1.70;;;;;;;14.88;38.83;100332.47;10406365;28;20071;-70
2023/03/15 11:32:38;;;;;;;1.48;0.75;;;;;;;13.41;40.89;100348.84;10391278;28;20560;-72
2023/03/15 11:37:46;;;;;;;1.40;0.70;;;;;;;15.24;39.08;100349.47;10405311;28;20064;-72
2023/03/15 11:42:59;;;;;;;0.70;0.60;;;;;;;13.44;38.94;100351.25;10390954;28;20049;-70
2023/03/15 11:48:15;;;;;;;0.70;0.60;;;;;;;11.67;42.03;100341.59;10392014;28;20063;-69
2023/03/15 11:53:17;;;;;;;0.90;0.70;;;;;;;11.39;43.39;100339.53;10405595;28;20059;-70
2023/03/15 11:58:32;;;;;;;0.82;0.80;;;;;;;10.66;44.09;100363.13;10405507;28;20061;-69
2023/03/15 12:03:38;;;;;;;1.30;1.00;;;;;;;10.09;46.48;100352.44;10404705;28;20048;-69
2023/03/15 12:08:51;;;;;;;0.85;0.70;;;;;;;10.04;45.22;100357.25;10387942;28;20439;-71
2023/03/15 12:13:56;;;;;;;1.40;0.75;;;;;;;10.08;44.25;100354.22;10412293;28;20051;-70
2023/03/15 12:19:00;;;;;;;1.17;0.95;;;;;;;9.40;44.70;100374.44;10414709;28;21125;-71
2023/03/15 12:24:05;;;;;;;0.82;0.80;;;;;;;9.18;46.75;100375.97;10407413;28;20053;-71
2023/03/15 12:29:27;;;;;;;2.17;1.27;;;;;;;9.38;47.08;100371.00;10392890;28;20049;-69
2023/03/15 12:34:50;;;;;;;1.50;1.15;;;;;;;10.48;44.09;100384.94;10388407;28;20107;-70
2023/03/15 12:40:21;;;;;;;3.83;1.50;;;;;;;11.66;41.57;100385.25;10404274;28;20056;-70
2023/03/15 12:45:39;;;;;;;3.70;1.35;;;;;;;17.25;33.55;100385.41;10400683;28;20484;-74
2023/03/15 12:50:44;;;;;;;1.52;1.08;;;;;;;14.76;34.15;100388.13;10392828;28;20068;-69
2023/03/15 12:55:46;;;;;;;1.95;0.70;;;;;;;19.58;29.77;100373.06;10413422;28;20052;-73
2023/03/15 13:00:52;;;;;;;0.98;0.70;;;;;;;17.12;28.94;100373.28;10426316;28;20049;-71
2023/03/15 13:06:02;;;;;;;2.35;1.20;;;;;;;11.77;37.79;100387.00;10401507;28;20358;-72
2023/03/15 13:11:10;;;;;;;2.78;1.08;;;;;;;12.40;39.37;100383.53;10398539;28;20904;-70
2023/03/15 13:16:37;;;;;;;2.17;1.10;;;;;;;11.74;38.33;100378.41;10397296;28;20050;-69
2023/03/15 13:21:51;;;;;;;2.38;1.13;;;;;;;12.79;37.36;100377.50;10378908;28;20060;-70
2023/03/15 13:27:03;;;;;;;2.60;0.88;;;;;;;17.20;29.63;100369.78;10381812;28;20071;-69
2023/03/15 13:32:17;;;;;;;1.42;1.00;;;;;;;23.22;21.64;100371.28;10399233;28;20175;-70
2023/03/15 13:37:30;;;;;;;1.38;0.60;;;;;;;23.98;22.07;100366.66;10398200;28;20053;-70
2023/03/15 13:42:32;;;;;;;1.95;0.75;;;;;;;23.63;20.91;100364.09;10399154;28;20044;-72
2023/03/15 13:47:34;;;;;;;1.25;0.75;;;;;;;26.02;18.98;100358.13;10405071;28;20563;-72
2023/03/15 13:52:36;;;;;;;1.65;0.55;;;;;;;27.63;16.59;100351.59;10407175;28;20592;-73
2023/03/15 13:57:37;;;;;;;1.08;0.28;;;;;;;25.36;17.17;100346.63;10408883;28;20573;-71
2023/03/15 14:02:42;;;;;;;1.58;0.50;;;;;;;22.81;20.28;100346.91;10377131;28;20444;-74
2023/03/15 14:07:48;;;;;;;2.60;0.65;;;;;;;21.90;20.28;100362.09;10393165;28;20041;-74
2023/03/15 14:12:51;;;;;;;2.20;1.40;;;;;;;19.16;23.53;100363.53;10401605;28;20051;-71
2023/03/15 14:18:10;;;;;;;1.98;0.38;;;;;;;19.48;23.07;100357.09;10374509;28;20170;-72
2023/03/15 14:23:15;;;;;;;2.28;0.90;;;;;;;18.90;26.54;100353.91;10394422;28;20041;-72
2023/03/15 14:28:17;;;;;;;0.88;0.50;;;;;;;18.15;26.54;100355.94;10397156;28;20049;-71
2023/03/15 14:33:30;;;;;;;1.23;0.80;;;;;;;16.42;27.86;100352.81;10390200;28;20068;-73
2023/03/15 14:38:35;;;;;;;1.38;0.85;;;;;;;14.93;28.64;100363.19;10382188;28;20288;-73
2023/03/15 14:43:36;;;;;;;1.50;0.70;;;;;;;15.09;29.88;100357.19;10404543;28;20061;-72
2023/03/15 14:48:38;;;;;;;5.88;2.13;;;;;;;14.88;29.29;100367.31;10409031;28;20211;-72
2023/03/15 14:53:40;;;;;;;1.92;0.70;;;;;;;14.37;29.11;100366.78;10402861;28;20052;-71
2023/03/15 14:58:42;;;;;;;2.58;0.73;;;;;;;14.03;29.35;100378.81;10413115;28;20064;-71
2023/03/15 15:04:00;;;;;;;0.75;0.50;;;;;;;13.88;30.43;100390.94;10412310;28;20539;-72
2023/03/15 15:09:04;;;;;;;1.30;0.65;;;;;;;13.47;29.81;100380.38;10440644;28;20048;-72
2023/03/15 15:14:11;;;;;;;;;;;;;;;13.31;30.57;100399.59;10428499;28;20079;-72
2023/03/15 15:19:13;;;;;;;2.67;1.17;;;;;;;13.13;31.10;100407.44;10435687;28;20139;-73
2023/03/15 15:24:18;;;;;;;1.08;0.73;;;;;;;12.73;31.87;100385.09;10435764;28;20053;-72
2023/03/15 15:29:20;;;;;;;2.65;1.20;;;;;;;12.53;31.89;100410.00;10442611;28;20045;-71
2023/03/15 15:34:21;;;;;;;4.00;3.05;;;;;;;12.38;32.56;100405.03;10444794;28;20170;-73
2023/03/15 15:39:26;;;;;;;2.97;2.03;;;;;;;12.22;32.42;100409.97;10429273;28;20079;-73
2023/03/15 15:44:27;;;;;;;2.28;1.80;;;;;;;11.61;33.84;100408.75;10419889;28;21311;-71
2023/03/15 15:49:29;;;;;;;3.75;1.98;;;;;;;10.78;35.69;100420.78;10407309;28;20595;-72
2023/03/15 15:54:33;;;;;;;3.60;2.30;;;;;;;10.87;35.96;100430.69;10408176;28;21294;-71
2023/03/15 15:59:35;;;;;;;4.55;4.00;;;;;;;10.71;35.89;100435.53;10426639;28;20048;-72
2023/03/15 16:04:37;;;;;;;3.05;2.08;;;;;;;10.52;33.61;100442.25;10403987;28;20121;-72
2023/03/15 16:09:39;;;;;;;3.15;1.48;;;;;;;10.53;35.11;100448.44;10420164;28;20064;-70
2023/03/15 16:14:41;;;;;;;2.83;1.20;;;;;;;9.76;36.24;100449.75;10417670;28;20483;-72
2023/03/15 16:19:42;;;;;;;2.42;1.30;;;;;;;9.74;36.80;100446.31;10418446;28;20128;-70
2023/03/15 16:24:47;;;;;;;4.30;1.58;;;;;;;9.66;36.75;100449.56;10394306;28;20140;-71
2023/03/15 16:29:51;;;;;;;2.58;1.20;;;;;;;9.80;37.35;100451.19;10413292;28;20049;-71
2023/03/15 16:34:53;;;;;;;;;;;;;;;9.81;37.35;100458.22;10389332;28;20423;-70
2023/03/15 16:39:54;;;;;;;3.72;1.38;;;;;;;9.40;38.88;100453.25;10407749;28;20091;-71
2023/03/15 16:44:56;;;;;;;2.88;1.30;;;;;;;9.53;37.65;100462.91;10405020;28;20049;-69
2023/03/15 16:49:57;;;;;;;2.13;1.48;;;;;;;9.17;38.80;100446.00;10400614;28;20079;-72
2023/03/15 16:55:00;;;;;;;3.22;1.58;;;;;;;9.32;40.01;100452.03;10392009;28;20056;-70
2023/03/15 17:00:01;;;;;;;3.28;1.63;;;;;;;9.42;40.43;100467.31;10396772;28;20574;-72
2023/03/15 17:05:05;;;;;;;3.07;1.43;;;;;;;9.03;40.47;100462.06;10382638;28;20044;-72
2023/03/15 17:10:10;;;;;;;3.28;1.15;;;;;;;9.01;40.37;100464.00;10394129;28;20053;-70
2023/03/15 17:15:12;;;;;;;3.80;0.98;;;;;;;8.93;40.82;100468.97;10396944;28;20060;-72
2023/03/15 17:20:20;;;;;;;5.90;1.55;;;;;;;8.98;40.93;100475.66;10395328;28;20123;-70
2023/03/15 17:25:22;;;;;;;2.42;1.58;;;;;;;8.83;40.87;100482.91;10399481;28;20407;-71
2023/03/15 17:30:24;;;;;;;4.65;3.05;;;;;;;8.74;42.44;100499.47;10391939;28;20073;-69
2023/03/15 17:35:29;;;;;;;3.95;1.80;;;;;;;8.77;42.10;100501.91;10384508;28;20052;-69
2023/03/15 17:40:34;;;;;;;3.00;2.17;;;;;;;8.75;41.72;100505.63;10402741;28;20067;-71
2023/03/15 17:45:36;;;;;;;6.20;3.35;;;;;;;8.57;41.74;100511.25;10405725;28;20486;-72
2023/03/15 17:50:40;;;;;;;4.50;2.40;;;;;;;8.49;42.51;100505.59;10403019;28;20051;-71
2023/03/15 17:55:42;;;;;;;3.17;2.53;;;;;;;8.53;42.83;100525.66;10398322;28;20128;-71
2023/03/15 18:00:46;;;;;;;4.20;2.90;;;;;;;8.46;44.32;100527.88;10399542;28;20057;-72
2023/03/15 18:05:48;;;;;;;3.00;1.70;;;;;;;8.38;43.29;100524.03;10383752;28;20045;-70
2023/03/15 18:10:50;;;;;;;3.28;2.58;;;;;;;8.36;43.50;100525.91;10401152;28;20049;-72
2023/03/15 18:15:52;;;;;;;4.15;2.35;;;;;;;8.35;43.91;100529.50;10395331;28;20068;-70
2023/03/15 18:20:54;;;;;;;5.65;2.70;;;;;;;8.25;44.60;100545.19;10410539;28;20155;-71
2023/03/15 18:25:55;;;;;;;9.40;2.78;;;;;;;8.25;48.02;100540.72;10386504;28;20063;-76
2023/03/15 18:30:56;;;;;;;6.25;3.40;;;;;;;8.19;45.52;100550.91;10392251;28;20460;-72
2023/03/15 18:35:58;;;;;;;5.28;3.10;;;;;;;8.13;45.86;100558.28;10396200;28;20570;-73
2023/03/15 18:40:59;;;;;;;3.17;2.88;;;;;;;8.02;45.13;100547.56;10404364;28;20065;-75
2023/03/15 18:46:01;;;;;;;3.58;2.85;;;;;;;7.94;46.14;100563.09;10399904;28;20471;-72
2023/03/15 18:51:02;;;;;;;5.10;2.80;;;;;;;7.87;46.93;100545.91;10403963;28;20056;-75
2023/03/15 18:56:04;;;;;;;5.35;4.50;;;;;;;7.86;45.51;100554.81;10400808;28;20044;-76
2023/03/15 19:01:05;;;;;;;10.52;5.18;;;;;;;7.76;46.30;100560.69;10387838;28;20095;-73
2023/03/15 19:06:10;;;;;;;5.70;3.33;;;;;;;7.73;46.57;100565.31;10395895;28;20068;-73
2023/03/15 19:11:11;;;;;;;5.05;3.60;;;;;;;7.71;46.44;100568.06;10399060;28;20056;-73
2023/03/15 19:16:13;;;;;;;7.32;6.00;;;;;;;7.61;46.63;100562.53;10400081;28;20045;-76
2023/03/15 19:21:15;;;;;;;6.55;5.85;;;;;;;7.59;46.32;100574.16;10397113;28;20060;-74
2023/03/15 19:26:16;;;;;;;7.50;6.13;;;;;;;7.49;47.46;100573.91;10416539;28;20052;-74
2023/03/15 19:31:17;;;;;;;6.95;6.15;;;;;;;7.49;48.08;100580.97;10417202;28;20057;-73
2023/03/15 19:36:21;;;;;;;6.78;6.05;;;;;;;7.47;48.29;100596.13;10413971;28;20067;-70
2023/03/15 19:41:22;;;;;;;8.13;5.13;;;;;;;7.28;47.82;100585.81;10394299;28;20093;-70
2023/03/15 19:46:24;;;;;;;8.05;6.45;;;;;;;7.07;48.39;100602.91;10415822;28;20077;-72
2023/03/15 19:51:26;;;;;;;10.30;7.55;;;;;;;6.92;49.26;100598.53;10391419;28;20053;-71
2023/03/15 19:56:28;;;;;;;7.53;6.63;;;;;;;6.90;49.32;100619.81;10388313;28;20049;-72
2023/03/15 20:01:31;;;;;;;8.55;7.05;;;;;;;6.91;49.24;100620.66;10417607;28;20049;-73
2023/03/15 20:06:32;;;;;;;6.82;6.13;;;;;;;6.99;49.60;100621.03;10397937;28;20090;-74
2023/03/15 20:11:34;;;;;;;7.75;6.43;;;;;;;6.98;50.05;100626.41;10394540;28;20128;-71
2023/03/15 20:16:35;;;;;;;7.88;6.00;;;;;;;6.87;50.17;100625.25;10415409;28;20857;-70
2023/03/15 20:21:36;;;;;;;9.65;7.03;;;;;;;6.95;49.86;100638.06;10430127;28;20051;-70
2023/03/15 20:26:38;;;;;;;10.68;9.15;;;;;;;6.86;49.60;100636.81;10402558;28;20616;-71
2023/03/15 20:31:39;;;;;;;12.68;8.13;;;;;;;6.74;50.26;100634.88;10456656;28;20056;-74
2023/03/15 20:36:41;;;;;;;19.13;13.45;;;;;;;6.73;50.68;100626.06;10435749;28;20078;-71
2023/03/15 20:41:43;;;;;;;10.15;7.57;;;;;;;6.76;50.76;100634.78;10409705;28;20060;-71
2023/03/15 20:46:44;;;;;;;9.10;7.20;;;;;;;6.82;50.40;100643.22;10405482;28;20072;-69
2023/03/15 20:51:46;;;;;;;9.88;7.70;;;;;;;6.73;50.39;100636.66;10403454;28;20143;-74
2023/03/15 20:56:47;;;;;;;11.63;7.82;;;;;;;6.59;51.06;100641.91;10409598;28;20060;-67
2023/03/15 21:01:50;;;;;;;10.50;8.13;;;;;;;6.58;51.67;100647.28;10390698;28;20171;-70
2023/03/15 21:06:51;;;;;;;9.32;7.35;;;;;;;6.64;52.07;100649.59;10390778;28;20080;-68
2023/03/15 21:11:53;;;;;;;10.10;7.93;;;;;;;6.58;52.10;100650.78;10413773;28;20068;-68
2023/03/15 21:16:54;;;;;;;8.70;7.80;;;;;;;6.59;53.10;100657.78;10410310;28;20041;-69
2023/03/15 21:21:57;;;;;;;9.38;8.00;;;;;;;6.53;53.22;100652.81;10407550;28;20044;-68
2023/03/15 21:27:05;;;;;;;14.13;8.65;;;;;;;6.49;53.06;100648.66;10408437;28;20041;-65
2023/03/15 21:32:06;;;;;;;10.73;9.18;;;;;;;6.39;53.36;100650.13;10409627;28;20376;-69
2023/03/15 21:37:08;;;;;;;12.38;8.43;;;;;;;6.25;53.26;100658.84;10408327;28;20052;-71
2023/03/15 21:42:09;;;;;;;9.52;7.70;;;;;;;6.14;52.78;100660.28;10386271;28;20626;-66
2023/03/15 21:47:12;;;;;;;12.32;9.40;;;;;;;5.97;53.60;100652.44;10409125;28;20052;-67
2023/03/15 21:52:15;;;;;;;10.88;8.65;;;;;;;5.93;54.78;100670.22;10392454;28;20048;-71
2023/03/15 21:57:16;;;;;;;13.93;9.95;;;;;;;5.90;54.55;100673.03;10409074;28;20523;-70
2023/03/15 22:02:17;;;;;;;14.18;10.98;;;;;;;5.73;55.32;100655.44;10409516;28;20593;-68
2023/03/15 22:07:19;;;;;;;12.52;11.15;;;;;;;5.61;56.20;100651.66;10408898;28;20040;-69
2023/03/15 22:12:20;;;;;;;15.20;10.82;;;;;;;5.54;56.70;100658.22;10407209;28;20061;-67
2023/03/15 22:17:22;;;;;;;10.15;9.07;;;;;;;5.40;56.70;100666.84;10410738;28;20060;-69
2023/03/15 22:22:23;;;;;;;10.73;9.07;;;;;;;5.27;56.94;100661.38;10418761;28;20200;-70
2023/03/15 22:27:25;;;;;;;12.65;9.30;;;;;;;5.19;57.57;100646.84;10410278;28;20056;-69
2023/03/15 22:32:27;;;;;;;13.80;10.25;;;;;;;5.07;58.38;100658.88;10432475;28;20121;-70
2023/03/15 22:37:28;;;;;;;12.27;10.10;;;;;;;4.94;58.34;100646.31;10414595;28;20128;-69
2023/03/15 22:42:30;;;;;;;14.48;10.38;;;;;;;4.88;58.32;100658.97;10385457;28;20067;-68
2023/03/15 22:47:31;;;;;;;13.25;10.38;;;;;;;4.80;58.65;100667.25;10388413;28;20555;-70
2023/03/15 22:52:32;;;;;;;11.13;9.73;;;;;;;4.68;59.24;100657.31;10393491;28;20137;-67
2023/03/15 22:57:34;;;;;;;12.82;9.43;;;;;;;4.58;59.26;100652.50;10405488;28;20565;-69
2023/03/15 23:02:35;;;;;;;11.13;9.40;;;;;;;4.56;59.46;100661.41;10408973;28;20069;-68
2023/03/15 23:07:38;;;;;;;12.02;9.57;;;;;;;4.43;59.76;100661.19;10405754;28;20822;-66
2023/03/15 23:12:39;;;;;;;11.43;9.15;;;;;;;4.39;60.48;100657.81;10407766;28;20139;-70
2023/03/15 23:17:44;;;;;;;13.30;10.35;;;;;;;4.33;60.64;100662.53;10404518;28;20507;-68
2023/03/15 23:22:47;;;;;;;13.05;9.50;;;;;;;4.27;61.40;100660.19;10406629;28;20126;-67
2023/03/15 23:27:49;;;;;;;9.68;8.05;;;;;;;4.18;61.87;100680.78;10405771;28;20053;-68
2023/03/15 23:32:56;;;;;;;9.70;8.70;;;;;;;4.19;61.88;100668.47;10404417;28;20056;-66